createdAt,value
2018-12-21T00:02:27.283Z,79.60
2018-12-21T00:04:59.428Z,78.27
2018-12-21T00:07:31.525Z,81.33
2018-12-21T00:10:03.650Z,76.90
2018-12-21T00:12:35.678Z,74.37
2018-12-21T00:15:08.235Z,90.07
2018-12-21T00:17:40.257Z,115.93
2018-12-21T00:20:12.875Z,88.63
2018-12-21T00:22:44.839Z,98.97
2018-12-21T00:25:16.986Z,77.20
2018-12-21T00:27:49.213Z,90.87
2018-12-21T00:30:23.240Z,88.17
2018-12-21T00:33:00.182Z,86.10
2018-12-21T00:35:37.268Z,80.17
2018-12-21T00:38:14.167Z,97.37
2018-12-21T00:40:51.657Z,79.80
2018-12-21T00:43:29.127Z,88.27
2018-12-21T00:46:08.865Z,88.30
2018-12-21T00:48:40.767Z,87.87
2018-12-21T00:51:12.764Z,74.83
2018-12-21T00:53:44.958Z,82.43
2018-12-21T00:56:17.166Z,100.83
2018-12-21T00:58:49.281Z,97.80
2018-12-21T01:01:21.658Z,75.90
2018-12-21T01:03:53.751Z,78.07
2018-12-21T01:06:25.691Z,101.23
2018-12-21T01:08:57.899Z,92.83
2018-12-21T01:11:30.499Z,85.10
2018-12-21T01:14:04.462Z,87.67
2018-12-21T01:16:36.526Z,74.43
2018-12-21T01:19:08.362Z,103.53
2018-12-21T01:21:40.746Z,75.87
2018-12-21T01:24:13.039Z,90.93
2018-12-21T01:26:44.968Z,82.37
2018-12-21T01:29:17.097Z,82.00
2018-12-21T01:31:48.828Z,88.20
2018-12-21T01:34:20.976Z,90.30
2018-12-21T01:36:52.958Z,87.13
2018-12-21T01:39:26.158Z,85.60
2018-12-21T01:41:58.514Z,88.80
2018-12-21T01:44:30.701Z,94.07
2018-12-21T01:47:02.790Z,99.47
2018-12-21T01:49:34.838Z,117.30
2018-12-21T01:52:07.183Z,103.77
2018-12-21T01:54:39.962Z,97.23
2018-12-21T01:57:11.772Z,93.60
2018-12-21T01:59:43.653Z,88.00
2018-12-21T02:02:15.586Z,88.77
2018-12-21T02:04:47.312Z,97.03
2018-12-21T02:07:19.292Z,111.40
2018-12-21T02:09:51.420Z,123.43
2018-12-21T02:12:23.417Z,98.57
2018-12-21T02:14:55.568Z,90.57
2018-12-21T02:17:27.393Z,86.10
2018-12-21T02:19:59.624Z,85.57
2018-12-21T02:22:31.609Z,98.60
2018-12-21T02:25:03.469Z,97.73
2018-12-21T02:27:36.993Z,120.73
2018-12-21T02:30:09.738Z,96.00
2018-12-21T02:32:41.819Z,80.43
2018-12-21T02:35:13.601Z,91.93
2018-12-21T02:37:45.730Z,99.80
2018-12-21T02:40:17.600Z,99.63
2018-12-21T02:42:49.274Z,88.57
2018-12-21T02:45:21.258Z,108.43
2018-12-21T02:47:53.262Z,96.27
2018-12-21T02:50:28.510Z,91.87
2018-12-21T02:53:00.672Z,89.47
2018-12-21T02:55:32.712Z,95.50
2018-12-21T02:58:05.485Z,102.97
2018-12-21T03:00:37.320Z,95.43
2018-12-21T03:03:10.326Z,97.50
2018-12-21T03:05:42.069Z,104.43
2018-12-21T03:08:14.145Z,85.70
2018-12-21T03:10:46.019Z,100.40
2018-12-21T03:13:18.264Z,102.43
2018-12-21T03:15:50.177Z,84.47
2018-12-21T03:18:22.190Z,99.13
2018-12-21T03:20:54.758Z,98.43
2018-12-21T03:23:26.488Z,102.50
2018-12-21T03:25:58.467Z,108.23
2018-12-21T03:28:30.529Z,101.83
2018-12-21T03:31:02.596Z,98.65
2018-12-21T03:33:35.603Z,105.77
2018-12-21T03:36:07.641Z,83.90
2018-12-21T03:38:39.872Z,92.77
2018-12-21T03:41:11.746Z,89.03
2018-12-21T03:43:43.960Z,91.33
2018-12-21T03:46:15.893Z,80.93
2018-12-21T03:48:48.377Z,83.87
2018-12-21T03:51:20.413Z,94.07
2018-12-21T03:53:52.118Z,80.07
2018-12-21T03:56:23.964Z,88.03
2018-12-21T03:58:56.096Z,88.23
2018-12-21T04:01:28.178Z,89.47
2018-12-21T04:04:00.216Z,84.40
2018-12-21T04:06:32.313Z,90.30
2018-12-21T04:09:04.819Z,83.37
2018-12-21T04:11:36.722Z,86.93
2018-12-21T04:14:08.735Z,77.83
2018-12-21T04:16:40.605Z,76.23
2018-12-21T04:19:12.796Z,84.97
2018-12-21T04:21:45.547Z,78.10
2018-12-21T04:24:17.653Z,95.83
2018-12-21T04:26:49.739Z,98.77
2018-12-21T04:29:21.588Z,86.13
2018-12-21T04:31:53.411Z,87.47
2018-12-21T04:34:25.519Z,96.30
2018-12-21T04:36:57.559Z,80.53
2018-12-21T04:39:29.592Z,83.60
2018-12-21T04:42:02.015Z,92.67
2018-12-21T04:44:34.241Z,103.30
2018-12-21T04:47:06.273Z,85.27
2018-12-21T04:49:38.354Z,85.90
2018-12-21T04:52:10.495Z,79.93
2018-12-21T04:54:42.325Z,81.50
2018-12-21T04:57:14.288Z,87.57
2018-12-21T04:59:46.369Z,88.67
2018-12-21T05:02:18.519Z,99.37
2018-12-21T05:04:50.536Z,97.00
2018-12-21T05:07:22.794Z,83.93
2018-12-21T05:09:54.716Z,73.33
2018-12-21T05:12:26.877Z,70.63
2018-12-21T05:14:59.645Z,82.57
2018-12-21T05:17:32.040Z,95.77
2018-12-21T05:20:04.715Z,94.40
2018-12-21T05:22:37.203Z,107.63
2018-12-21T05:25:09.463Z,98.37
2018-12-21T05:27:41.792Z,83.87
2018-12-21T05:30:14.127Z,103.00
2018-12-21T05:32:46.925Z,92.70
2018-12-21T05:35:19.481Z,77.33
2018-12-21T05:37:51.772Z,102.13
2018-12-21T05:40:23.801Z,81.97
2018-12-21T05:42:56.819Z,103.60
2018-12-21T05:45:29.385Z,102.97
2018-12-21T05:48:01.974Z,103.90
2018-12-21T05:50:34.604Z,106.07
2018-12-21T05:53:07.024Z,90.80
2018-12-21T05:55:39.137Z,97.57
2018-12-21T05:58:11.656Z,103.33
2018-12-21T06:00:44.764Z,115.47
2018-12-21T06:03:16.873Z,89.47
2018-12-21T06:05:49.512Z,94.23
2018-12-21T06:08:22.036Z,87.73
2018-12-21T06:10:54.424Z,94.63
2018-12-21T06:13:27.232Z,101.53
2018-12-21T06:15:59.806Z,88.10
2018-12-21T06:18:32.714Z,80.93
2018-12-21T06:21:05.199Z,87.47
2018-12-21T06:23:38.738Z,108.97
2018-12-21T06:26:10.791Z,81.17
2018-12-21T06:28:43.892Z,97.23
2018-12-21T06:31:16.608Z,100.33
2018-12-21T06:33:49.222Z,76.77
2018-12-21T06:36:21.223Z,90.43
2018-12-21T06:38:54.157Z,99.30
2018-12-21T06:41:26.961Z,113.07
2018-12-21T06:43:59.433Z,113.43
2018-12-21T06:46:31.417Z,116.20
2018-12-21T06:49:03.481Z,99.43
2018-12-21T06:51:35.896Z,94.53
2018-12-21T06:54:08.018Z,115.93
2018-12-21T06:56:40.629Z,112.87
2018-12-21T06:59:13.897Z,92.40
2018-12-21T07:01:46.461Z,85.23
2018-12-21T07:04:18.984Z,95.77
2018-12-21T07:06:51.079Z,79.03
2018-12-21T07:09:23.832Z,98.07
2018-12-21T07:11:55.805Z,91.33
2018-12-21T07:14:28.077Z,97.90
2018-12-21T07:17:00.172Z,87.63
2018-12-21T07:19:32.478Z,93.80
2018-12-21T07:22:04.483Z,107.27
2018-12-21T07:24:37.637Z,108.87
2018-12-21T07:27:09.677Z,97.23
2018-12-21T07:29:42.216Z,105.40
2018-12-21T07:32:14.390Z,98.13
2018-12-21T07:34:47.168Z,109.73
2018-12-21T07:37:20.330Z,115.83
2018-12-21T07:39:52.826Z,114.43
2018-12-21T07:42:25.210Z,109.30
2018-12-21T07:44:57.614Z,112.63
2018-12-21T07:47:29.757Z,123.17
2018-12-21T07:50:03.376Z,133.97
2018-12-21T07:52:35.415Z,113.50
2018-12-21T07:55:10.052Z,106.10
2018-12-21T07:57:42.164Z,88.60
2018-12-21T08:00:15.365Z,113.00
2018-12-21T08:02:47.574Z,101.57
2018-12-21T08:05:19.634Z,123.57
2018-12-21T08:07:51.811Z,88.60
2018-12-21T08:10:24.371Z,110.70
2018-12-21T08:12:56.271Z,106.53
2018-12-21T08:15:28.487Z,122.10
2018-12-21T08:18:00.753Z,121.17
2018-12-21T08:20:33.721Z,119.33
2018-12-21T08:23:06.106Z,116.57
2018-12-21T08:25:38.424Z,132.00
2018-12-21T08:28:10.883Z,107.27
2018-12-21T08:30:43.435Z,113.97
2018-12-21T08:33:16.014Z,126.33
2018-12-21T08:35:48.771Z,139.40
2018-12-21T08:38:21.229Z,135.60
2018-12-21T08:40:53.561Z,121.80
2018-12-21T08:43:25.741Z,122.90
2018-12-21T08:45:58.414Z,154.13
2018-12-21T08:48:31.206Z,131.57
2018-12-21T08:51:03.693Z,147.13
2018-12-21T08:53:36.875Z,143.10
2018-12-21T08:56:09.633Z,159.77
2018-12-21T08:58:42.116Z,150.93
2018-12-21T09:01:13.836Z,127.00
2018-12-21T09:03:46.198Z,154.30
2018-12-21T09:06:18.878Z,152.60
2018-12-21T09:08:51.363Z,179.97
2018-12-21T09:11:24.212Z,167.07
2018-12-21T09:13:56.673Z,143.67
2018-12-21T09:16:29.241Z,212.07
2018-12-21T09:19:01.575Z,165.53
2018-12-21T09:21:34.028Z,160.63
2018-12-21T09:24:06.515Z,157.73
2018-12-21T09:26:38.611Z,173.60
2018-12-21T09:29:11.348Z,142.63
2018-12-21T09:31:43.782Z,192.40
2018-12-21T09:34:16.419Z,204.47
2018-12-21T09:36:48.612Z,165.87
2018-12-21T09:39:21.086Z,158.10
2018-12-21T09:41:54.218Z,192.13
2018-12-21T09:44:27.242Z,196.07
2018-12-21T09:46:59.310Z,172.90
2018-12-21T09:49:31.835Z,211.83
2018-12-21T09:52:04.367Z,215.00
2018-12-21T09:54:37.255Z,194.97
2018-12-21T09:57:09.792Z,184.57
2018-12-21T09:59:42.884Z,181.97
2018-12-21T10:02:14.962Z,171.83
2018-12-21T10:04:47.034Z,186.50
2018-12-21T10:07:27.371Z,185.13
2018-12-21T10:09:53.447Z,174.27
2018-12-21T10:12:25.921Z,174.90
2018-12-21T10:14:58.218Z,168.80
2018-12-21T10:17:30.322Z,183.87
2018-12-21T10:20:02.524Z,187.67
2018-12-21T10:22:34.547Z,191.80
2018-12-21T10:25:07.458Z,168.87
2018-12-21T10:27:39.476Z,171.30
2018-12-21T10:30:12.632Z,213.03
2018-12-21T10:32:44.956Z,180.20
2018-12-21T10:35:17.426Z,184.07
2018-12-21T10:37:49.618Z,169.37
2018-12-21T10:40:21.839Z,168.77
2018-12-21T10:42:54.053Z,225.50
2018-12-21T10:45:26.287Z,175.37
2018-12-21T10:48:00.116Z,197.30
2018-12-21T10:50:32.483Z,166.27
2018-12-21T10:53:04.459Z,203.00
2018-12-21T10:55:36.716Z,191.10
2018-12-21T10:58:09.007Z,221.83
2018-12-21T11:00:41.159Z,166.37
2018-12-21T11:03:13.917Z,206.80
2018-12-21T11:05:46.114Z,198.57
2018-12-21T11:08:17.947Z,196.20
2018-12-21T11:10:50.179Z,233.77
2018-12-21T11:13:22.446Z,231.37
2018-12-21T11:15:54.467Z,192.30
2018-12-21T11:18:26.729Z,217.07
2018-12-21T11:20:58.884Z,207.03
2018-12-21T11:23:31.159Z,233.03
2018-12-21T11:26:05.309Z,215.93
2018-12-21T11:28:37.518Z,236.97
2018-12-21T11:31:09.683Z,198.83
2018-12-21T11:33:42.109Z,229.30
2018-12-21T11:36:14.326Z,230.80
2018-12-21T11:38:46.985Z,205.07
2018-12-21T11:41:19.568Z,192.60
2018-12-21T11:43:52.006Z,239.40
2018-12-21T11:46:24.474Z,204.10
2018-12-21T11:48:57.222Z,218.97
2018-12-21T11:51:31.307Z,209.73
2018-12-21T11:54:03.617Z,180.07
2018-12-21T11:56:36.630Z,217.50
2018-12-21T11:59:09.283Z,204.53
2018-12-21T12:01:41.450Z,216.83
2018-12-21T12:04:13.876Z,231.73
2018-12-21T12:06:46.034Z,248.37
2018-12-21T12:09:18.560Z,230.07
2018-12-21T12:11:51.456Z,321.60
2018-12-21T12:14:24.015Z,229.37
2018-12-21T12:16:56.276Z,209.50
2018-12-21T12:19:28.902Z,226.37
2018-12-21T12:22:01.394Z,256.53
2018-12-21T12:24:33.913Z,334.13
2018-12-21T12:27:06.336Z,335.60
2018-12-21T12:29:38.966Z,294.43
2018-12-21T12:32:11.031Z,286.07
2018-12-21T12:34:43.114Z,244.10
2018-12-21T12:37:15.326Z,243.53
2018-12-21T12:39:47.798Z,207.10
2018-12-21T12:42:19.887Z,211.63
2018-12-21T12:44:52.378Z,214.73
2018-12-21T12:47:24.663Z,213.50
2018-12-21T12:49:56.915Z,200.37
2018-12-21T12:52:29.131Z,181.20
2018-12-21T12:57:36.120Z,195.13
2018-12-21T13:00:11.608Z,203.53
2018-12-21T13:02:44.050Z,194.83
2018-12-21T13:05:16.293Z,185.37
2018-12-21T13:07:48.690Z,197.27
2018-12-21T13:10:20.725Z,226.93
2018-12-21T13:12:52.752Z,236.13
2018-12-21T13:15:24.989Z,207.63
2018-12-21T13:17:57.443Z,194.67
2018-12-21T13:20:29.640Z,216.50
2018-12-21T13:23:01.983Z,234.60
2018-12-21T13:25:34.123Z,218.63
2018-12-21T13:28:06.462Z,224.50
2018-12-21T13:30:38.989Z,214.33
2018-12-21T13:33:10.943Z,247.37
2018-12-21T13:35:44.227Z,232.67
2018-12-21T13:38:17.088Z,206.33
2018-12-21T13:40:49.276Z,232.90
2018-12-21T13:43:21.605Z,205.17
2018-12-21T13:45:54.094Z,233.80
2018-12-21T13:48:26.557Z,185.87
2018-12-21T13:50:58.513Z,208.57
2018-12-21T13:53:30.609Z,215.33
2018-12-21T13:56:02.988Z,213.20
2018-12-21T13:58:35.434Z,197.47
2018-12-21T14:01:08.030Z,199.87
2018-12-21T14:03:40.415Z,249.20
2018-12-21T14:06:12.798Z,236.10
2018-12-21T14:08:45.119Z,215.77
2018-12-21T14:11:17.628Z,193.10
2018-12-21T14:13:50.170Z,200.60
2018-12-21T14:16:22.160Z,256.70
2018-12-21T14:18:54.350Z,266.13
2018-12-21T14:21:26.774Z,253.20
2018-12-21T14:23:59.020Z,200.87
2018-12-21T14:26:31.357Z,193.93
2018-12-21T14:29:03.604Z,207.57
2018-12-21T14:31:35.757Z,223.87
2018-12-21T14:34:08.136Z,204.30
2018-12-21T14:36:40.713Z,222.60
2018-12-21T14:39:12.899Z,408.90
2018-12-21T14:41:45.374Z,407.03
2018-12-21T14:44:18.141Z,404.27
2018-12-21T14:46:50.630Z,309.10
2018-12-21T14:49:22.611Z,260.40
2018-12-21T14:51:54.805Z,228.70
2018-12-21T14:54:27.652Z,244.50
2018-12-21T14:56:59.883Z,230.17
2018-12-21T14:59:33.178Z,215.70
2018-12-21T15:02:08.645Z,239.10
2018-12-21T15:04:42.216Z,224.43
2018-12-21T15:07:14.776Z,237.70
2018-12-21T15:09:47.228Z,216.60
2018-12-21T15:12:19.274Z,213.63
2018-12-21T15:14:52.185Z,211.77
2018-12-21T15:17:24.371Z,225.40
2018-12-21T15:19:56.856Z,229.83
2018-12-21T15:22:29.185Z,240.60
2018-12-21T15:25:01.438Z,225.97
2018-12-21T15:27:34.924Z,249.20
2018-12-21T15:30:10.890Z,256.30
2018-12-21T15:32:43.081Z,252.63
2018-12-21T15:35:15.518Z,254.53
2018-12-21T15:37:48.257Z,256.70
2018-12-21T15:40:20.590Z,256.27
2018-12-21T15:42:53.262Z,242.67
2018-12-21T15:45:25.891Z,269.07
2018-12-21T15:47:58.341Z,283.53
2018-12-21T15:50:32.871Z,269.33
2018-12-21T15:53:05.155Z,276.00
2018-12-21T15:55:37.374Z,357.97
2018-12-21T15:58:09.997Z,293.30
2018-12-21T16:00:44.163Z,299.03
2018-12-21T16:03:16.405Z,287.77
2018-12-21T16:05:49.100Z,292.27
2018-12-21T16:08:21.568Z,285.37
2018-12-21T16:10:53.812Z,303.50
2018-12-21T16:13:27.284Z,282.87
2018-12-21T16:15:59.648Z,305.20
2018-12-21T16:18:32.013Z,274.50
2018-12-21T16:21:04.938Z,259.63
2018-12-21T16:23:38.554Z,314.97
2018-12-21T16:26:11.162Z,403.73
2018-12-21T16:28:43.883Z,314.37
2018-12-21T16:31:16.310Z,297.03
2018-12-21T16:33:49.429Z,292.10
2018-12-21T16:36:21.776Z,283.63
2018-12-21T16:38:54.670Z,238.97
2018-12-21T16:41:27.072Z,251.50
2018-12-21T16:43:59.665Z,286.00
2018-12-21T16:46:32.670Z,296.32
2018-12-21T16:49:05.303Z,249.60
2018-12-21T16:51:37.905Z,234.20
2018-12-21T16:54:10.334Z,214.73
2018-12-21T16:56:42.720Z,229.17
2018-12-21T16:59:14.972Z,242.80
2018-12-21T17:01:47.907Z,183.27
2018-12-21T17:04:21.065Z,381.63
2018-12-21T17:06:53.484Z,253.30
2018-12-21T17:09:25.593Z,208.10
2018-12-21T17:11:58.523Z,233.37
2018-12-21T17:14:30.603Z,237.27
2018-12-21T17:17:04.972Z,227.63
2018-12-21T17:19:37.747Z,215.00
2018-12-21T17:22:10.467Z,223.10
2018-12-21T17:24:42.912Z,257.17
2018-12-21T17:27:15.574Z,264.10
2018-12-21T17:29:47.242Z,318.70
2018-12-21T17:32:19.781Z,283.17
2018-12-21T17:34:52.475Z,245.77
2018-12-21T17:37:25.008Z,263.03
2018-12-21T17:39:57.286Z,263.13
2018-12-21T17:42:29.856Z,246.10
2018-12-21T17:45:01.807Z,246.40
2018-12-21T17:47:35.216Z,236.10
2018-12-21T17:50:09.936Z,280.67
2018-12-21T17:52:42.261Z,239.93
2018-12-21T17:55:15.318Z,241.50
2018-12-21T17:57:48.136Z,219.83
2018-12-21T18:00:22.481Z,219.70
2018-12-21T18:02:58.558Z,299.70
2018-12-21T18:05:31.842Z,251.47
2018-12-21T18:08:04.644Z,273.87
2018-12-21T18:10:37.366Z,291.07
2018-12-21T18:13:10.224Z,275.13
2018-12-21T18:15:42.605Z,242.97
2018-12-21T18:18:24.909Z,251.93
2018-12-21T18:20:50.706Z,253.33
2018-12-21T18:23:23.703Z,276.33
2018-12-21T18:25:57.086Z,274.83
2018-12-21T18:28:30.547Z,244.63
2018-12-21T18:31:12.394Z,267.77
2018-12-21T18:33:46.330Z,299.20
2018-12-21T18:36:19.367Z,232.50
2018-12-21T18:38:51.996Z,273.67
2018-12-21T18:41:24.427Z,272.03
2018-12-21T18:43:56.827Z,240.67
2018-12-21T18:46:29.373Z,213.47
2018-12-21T18:49:01.807Z,270.27
2018-12-21T18:51:33.894Z,254.63
2018-12-21T18:54:06.404Z,218.67
2018-12-21T18:56:48.413Z,259.03
2018-12-21T18:59:21.323Z,252.10
2018-12-21T19:01:53.941Z,268.67
2018-12-21T19:04:27.067Z,198.10
2018-12-21T19:07:00.059Z,179.77
2018-12-21T19:09:32.714Z,157.67
2018-12-21T19:12:06.562Z,172.23
2018-12-21T19:14:40.249Z,182.27
2018-12-21T19:17:13.697Z,160.90
2018-12-21T19:19:46.529Z,177.60
2018-12-21T19:22:19.075Z,150.57
2018-12-21T19:24:52.541Z,180.67
2018-12-21T19:27:26.530Z,167.23
2018-12-21T19:29:59.666Z,198.30
2018-12-21T19:32:32.275Z,193.30
2018-12-21T19:35:05.393Z,175.60
2018-12-21T19:37:37.934Z,178.20
2018-12-21T19:40:13.408Z,221.00
2018-12-21T19:42:45.703Z,215.17
2018-12-21T19:45:18.052Z,198.97
2018-12-21T19:47:50.770Z,182.37
2018-12-21T19:50:23.996Z,212.67
2018-12-21T19:52:56.371Z,240.90
2018-12-21T19:55:41.371Z,252.40
2018-12-21T19:58:14.990Z,175.37
2018-12-21T20:00:47.734Z,213.23
2018-12-21T20:03:20.328Z,220.13
2018-12-21T20:05:53.030Z,222.00
2018-12-21T20:08:27.282Z,203.17
2018-12-21T20:11:00.442Z,223.70
2018-12-21T20:13:34.971Z,202.40
2018-12-21T20:16:07.484Z,227.37
2018-12-21T20:18:39.686Z,236.87
2018-12-21T20:21:12.558Z,239.13
2018-12-21T20:23:44.958Z,248.27
2018-12-21T20:26:17.329Z,251.73
2018-12-21T20:28:50.768Z,225.00
2018-12-21T20:31:23.119Z,217.90
2018-12-21T20:33:55.277Z,204.50
2018-12-21T20:36:27.944Z,218.57
2018-12-21T20:39:00.118Z,287.13
2018-12-21T20:41:32.442Z,232.00
2018-12-21T20:44:04.900Z,279.67
2018-12-21T20:46:37.188Z,238.70
2018-12-21T20:49:09.220Z,265.40
2018-12-21T20:51:41.261Z,219.20
2018-12-21T20:54:13.523Z,236.90
2018-12-21T20:56:50.704Z,237.07
2018-12-21T20:59:25.821Z,239.93
2018-12-21T21:01:58.787Z,276.27
2018-12-21T21:04:31.411Z,239.17
2018-12-21T21:07:04.041Z,239.00
2018-12-21T21:09:36.274Z,249.80
2018-12-21T21:12:08.617Z,240.23
2018-12-21T21:14:41.229Z,209.27
2018-12-21T21:17:14.052Z,247.13
2018-12-21T21:19:46.389Z,225.23
2018-12-21T21:22:18.962Z,216.57
2018-12-21T21:24:51.078Z,262.37
2018-12-21T21:27:30.228Z,239.27
2018-12-21T21:29:58.791Z,219.70
2018-12-21T21:32:31.567Z,256.07
2018-12-21T21:35:04.078Z,225.00
2018-12-21T21:37:36.181Z,237.93
2018-12-21T21:40:12.889Z,280.60
2018-12-21T21:42:44.852Z,240.07
2018-12-21T21:45:17.364Z,242.50
2018-12-21T21:47:50.145Z,214.63
2018-12-21T21:50:22.437Z,226.13
2018-12-21T21:52:54.644Z,218.07
2018-12-21T21:55:26.529Z,216.10
2018-12-21T21:57:58.468Z,192.40
2018-12-21T22:00:32.624Z,163.27
2018-12-21T22:03:04.524Z,156.87
2018-12-21T22:05:36.826Z,203.17
2018-12-21T22:08:09.537Z,200.93
2018-12-21T22:10:41.346Z,189.07
2018-12-21T22:13:13.641Z,201.47
2018-12-21T22:15:45.800Z,191.60
2018-12-21T22:18:17.754Z,210.03
2018-12-21T22:20:49.962Z,208.50
2018-12-21T22:23:22.970Z,213.57
2018-12-21T22:25:55.350Z,217.30
2018-12-21T22:28:27.498Z,245.40
2018-12-21T22:30:59.716Z,280.33
2018-12-21T22:33:31.695Z,315.30
2018-12-21T22:36:03.646Z,284.53
2018-12-21T22:38:35.629Z,332.73
2018-12-21T22:41:07.884Z,295.03
2018-12-21T22:43:40.774Z,292.73
2018-12-21T22:46:12.838Z,297.43
2018-12-21T22:48:44.858Z,281.30
2018-12-21T22:51:17.340Z,445.67
2018-12-21T22:53:49.269Z,263.47
2018-12-21T22:56:21.419Z,297.40
2018-12-21T22:58:53.545Z,266.10
2018-12-21T23:01:25.734Z,289.27
2018-12-21T23:03:58.007Z,321.70
2018-12-21T23:06:30.040Z,295.10
2018-12-21T23:09:01.924Z,313.47
2018-12-21T23:11:33.662Z,330.47
2018-12-21T23:14:05.505Z,295.43
2018-12-21T23:16:38.539Z,321.30
2018-12-21T23:19:10.904Z,298.70
2018-12-21T23:21:43.409Z,370.77
2018-12-21T23:24:17.496Z,266.33
2018-12-21T23:26:50.540Z,236.67
2018-12-21T23:29:22.539Z,259.70
2018-12-21T23:31:54.438Z,505.93
2018-12-21T23:34:26.471Z,318.10
2018-12-21T23:36:58.608Z,285.13
2018-12-21T23:39:30.865Z,313.93
2018-12-21T23:42:02.762Z,282.73
2018-12-21T23:44:34.779Z,312.50
2018-12-21T23:47:06.936Z,253.20
2018-12-21T23:49:38.835Z,285.20
2018-12-21T23:52:10.465Z,367.60
2018-12-21T23:54:42.633Z,249.10
2018-12-21T23:57:14.943Z,244.17
2018-12-21T23:59:46.764Z,250.43
